createdAt,value
2019-03-08T00:00:27.388Z,99619.17
2019-03-08T00:02:01.067Z,99624.02
2019-03-08T00:03:34.818Z,99630.09
2019-03-08T00:05:09.069Z,99631.00
2019-03-08T00:06:42.821Z,99628.98
2019-03-08T00:08:16.463Z,99626.38
2019-03-08T00:09:50.312Z,99629.22
2019-03-08T00:11:24.296Z,99636.69
2019-03-08T00:12:58.115Z,99625.95
2019-03-08T00:14:31.784Z,99632.52
2019-03-08T00:16:05.502Z,99635.94
2019-03-08T00:17:39.474Z,99630.89
2019-03-08T00:19:13.575Z,99630.08
2019-03-08T00:20:47.200Z,99636.56
2019-03-08T00:22:20.836Z,99635.17
2019-03-08T00:23:54.729Z,99632.34
2019-03-08T00:25:28.897Z,99634.61
2019-03-08T00:27:02.708Z,99628.63
2019-03-08T00:28:36.375Z,99633.13
2019-03-08T00:30:15.442Z,99628.37
2019-03-08T00:31:49.435Z,99632.47
2019-03-08T00:33:23.659Z,99629.39
2019-03-08T00:34:57.378Z,99633.97
2019-03-08T00:36:31.414Z,99634.19
2019-03-08T00:38:05.126Z,99638.26
2019-03-08T00:39:38.757Z,99633.09
2019-03-08T00:41:12.495Z,99635.77
2019-03-08T00:42:46.372Z,99640.20
2019-03-08T00:44:20.059Z,99641.94
2019-03-08T00:45:53.825Z,99640.31
2019-03-08T00:47:27.573Z,99635.45
2019-03-08T00:49:01.891Z,99638.31
2019-03-08T00:50:35.587Z,99638.41
2019-03-08T00:52:09.211Z,99640.05
2019-03-08T00:53:42.914Z,99628.23
2019-03-08T00:55:17.098Z,99630.63
2019-03-08T00:56:51.094Z,99627.78
2019-03-08T00:58:24.802Z,99639.86
2019-03-08T00:59:58.438Z,99637.47
2019-03-08T01:01:33.194Z,99628.11
2019-03-08T01:03:06.952Z,99632.80
2019-03-08T01:04:40.680Z,99633.16
2019-03-08T01:06:14.363Z,99629.31
2019-03-08T01:07:48.291Z,99632.51
2019-03-08T01:09:22.089Z,99634.08
2019-03-08T01:10:55.708Z,99630.88
2019-03-08T01:12:30.133Z,99631.62
2019-03-08T01:14:04.495Z,99628.63
2019-03-08T01:15:38.207Z,99622.47
2019-03-08T01:17:12.002Z,99628.55
2019-03-08T01:18:45.666Z,99624.27
2019-03-08T01:20:20.731Z,99627.09
2019-03-08T01:21:54.420Z,99623.94
2019-03-08T01:23:28.177Z,99622.38
2019-03-08T01:25:01.872Z,99625.05
2019-03-08T01:26:35.928Z,99618.91
2019-03-08T01:28:11.317Z,99614.76
2019-03-08T01:29:45.125Z,99610.00
2019-03-08T01:31:18.821Z,99612.16
2019-03-08T01:32:53.151Z,99611.52
2019-03-08T01:34:26.894Z,99619.23
2019-03-08T01:36:00.684Z,99621.00
2019-03-08T01:37:34.426Z,99613.32
2019-03-08T01:39:09.075Z,99619.97
2019-03-08T01:40:42.790Z,99618.63
2019-03-08T01:42:16.458Z,99624.09
2019-03-08T01:43:50.299Z,99629.52
2019-03-08T01:45:24.491Z,99627.15
2019-03-08T01:46:58.193Z,99627.37
2019-03-08T01:48:31.925Z,99626.20
2019-03-08T01:50:07.210Z,99625.38
2019-03-08T01:51:41.102Z,99634.61
2019-03-08T01:53:14.807Z,99626.92
2019-03-08T01:54:48.576Z,99632.52
2019-03-08T01:56:22.377Z,99626.80
2019-03-08T01:57:56.551Z,99624.33
2019-03-08T01:59:30.334Z,99628.66
2019-03-08T02:01:04.001Z,99629.41
2019-03-08T02:02:39.483Z,99630.36
2019-03-08T02:04:13.546Z,99631.72
2019-03-08T02:05:47.208Z,99637.17
2019-03-08T02:07:20.961Z,99637.62
2019-03-08T02:08:55.077Z,99635.85
2019-03-08T02:10:28.895Z,99640.02
2019-03-08T02:12:02.633Z,99647.93
2019-03-08T02:13:36.357Z,99645.57
2019-03-08T02:15:12.942Z,99651.44
2019-03-08T02:16:48.486Z,99655.24
2019-03-08T02:18:22.221Z,99652.72
2019-03-08T02:19:55.850Z,99643.17
2019-03-08T02:21:29.855Z,99648.20
2019-03-08T02:23:03.969Z,99639.14
2019-03-08T02:24:37.613Z,99644.20
2019-03-08T02:26:12.292Z,99643.70
2019-03-08T02:27:46.009Z,99648.95
2019-03-08T02:29:19.937Z,99647.38
2019-03-08T02:30:54.867Z,99641.17
2019-03-08T02:32:28.509Z,99644.02
2019-03-08T02:34:02.230Z,99644.66
2019-03-08T02:35:36.297Z,99645.69
2019-03-08T02:37:09.990Z,99639.97
2019-03-08T02:38:43.650Z,99642.79
2019-03-08T02:40:34.822Z,99645.52
2019-03-08T02:42:08.986Z,99648.05
2019-03-08T02:43:42.631Z,99651.28
2019-03-08T02:45:17.916Z,99652.21
2019-03-08T02:46:52.416Z,99657.37
2019-03-08T02:48:26.333Z,99656.00
2019-03-08T02:50:00.017Z,99657.39
2019-03-08T02:51:33.776Z,99650.60
2019-03-08T02:53:07.497Z,99651.50
2019-03-08T02:54:41.721Z,99658.27
2019-03-08T02:56:15.372Z,99665.39
2019-03-08T02:57:49.084Z,99660.31
2019-03-08T02:59:22.806Z,99662.11
2019-03-08T03:00:56.789Z,99658.36
2019-03-08T03:02:31.130Z,99664.84
2019-03-08T03:04:04.955Z,99659.72
2019-03-08T03:05:39.267Z,99655.90
2019-03-08T03:07:13.568Z,99657.69
2019-03-08T03:08:47.237Z,99653.39
2019-03-08T03:10:20.975Z,99651.21
2019-03-08T03:11:54.660Z,99639.19
2019-03-08T03:13:28.846Z,99641.81
2019-03-08T03:15:02.583Z,99650.19
2019-03-08T03:16:36.367Z,99649.47
2019-03-08T03:18:10.118Z,99646.23
2019-03-08T03:19:45.066Z,99643.16
2019-03-08T03:21:19.407Z,99652.25
2019-03-08T03:22:53.153Z,99654.80
2019-03-08T03:24:26.819Z,99647.03
2019-03-08T03:26:02.442Z,99650.17
2019-03-08T03:27:37.779Z,99652.60
2019-03-08T03:29:11.405Z,99653.39
2019-03-08T03:30:45.037Z,99650.34
2019-03-08T03:32:19.320Z,99658.30
2019-03-08T03:33:53.336Z,99658.09
2019-03-08T03:35:27.070Z,99659.59
2019-03-08T03:37:04.493Z,99656.27
2019-03-08T03:38:39.191Z,99659.70
2019-03-08T03:40:15.356Z,99657.73
2019-03-08T03:41:49.097Z,99652.77
2019-03-08T03:43:22.712Z,99657.81
2019-03-08T03:44:56.502Z,99663.72
2019-03-08T03:46:30.149Z,99664.70
2019-03-08T03:48:03.993Z,99655.43
2019-03-08T03:49:37.703Z,99656.61
2019-03-08T03:51:11.727Z,99660.60
2019-03-08T03:52:45.494Z,99660.28
2019-03-08T03:54:20.848Z,99658.64
2019-03-08T03:55:54.622Z,99662.61
2019-03-08T03:57:29.087Z,99660.17
2019-03-08T03:59:02.875Z,99659.70
2019-03-08T04:00:38.907Z,99665.42
2019-03-08T04:02:13.713Z,99669.23
2019-03-08T04:03:47.728Z,99668.90
2019-03-08T04:05:21.462Z,99676.67
2019-03-08T04:06:55.099Z,99672.84
2019-03-08T04:08:28.866Z,99669.04
2019-03-08T04:10:04.918Z,99676.25
2019-03-08T04:11:39.113Z,99676.70
2019-03-08T04:13:12.772Z,99676.77
2019-03-08T04:14:46.479Z,99675.45
2019-03-08T04:16:20.505Z,99682.91
2019-03-08T04:17:54.138Z,99677.11
2019-03-08T04:19:28.202Z,99685.59
2019-03-08T04:21:01.903Z,99686.08
2019-03-08T04:22:36.080Z,99681.70
2019-03-08T04:24:09.782Z,99685.23
2019-03-08T04:25:43.496Z,99685.89
2019-03-08T04:27:17.141Z,99685.89
2019-03-08T04:28:51.059Z,99681.97
2019-03-08T04:30:24.737Z,99685.62
2019-03-08T04:31:58.443Z,99684.99
2019-03-08T04:33:32.052Z,99688.01
2019-03-08T04:35:06.369Z,99686.89
2019-03-08T04:36:41.695Z,99686.65
2019-03-08T04:38:15.521Z,99677.12
2019-03-08T04:39:49.234Z,99685.10
2019-03-08T04:41:23.201Z,99685.06
2019-03-08T04:42:56.953Z,99686.84
2019-03-08T04:44:30.791Z,99686.11
2019-03-08T04:46:04.433Z,99687.58
2019-03-08T04:47:38.387Z,99679.20
2019-03-08T04:49:12.042Z,99679.10
2019-03-08T04:50:45.776Z,99676.36
2019-03-08T04:52:19.638Z,99675.59
2019-03-08T04:53:53.569Z,99668.38
2019-03-08T04:55:27.283Z,99670.70
2019-03-08T04:57:01.011Z,99671.36
2019-03-08T04:58:34.725Z,99669.25
2019-03-08T05:00:14.004Z,99662.27
2019-03-08T05:01:47.700Z,99663.58
2019-03-08T05:03:21.354Z,99671.11
2019-03-08T05:04:55.407Z,99673.87
2019-03-08T05:06:29.530Z,99671.41
2019-03-08T05:08:03.195Z,99675.47
2019-03-08T05:09:36.939Z,99680.31
2019-03-08T05:11:10.627Z,99678.95
2019-03-08T05:12:44.614Z,99684.66
2019-03-08T05:14:18.249Z,99684.74
2019-03-08T05:15:51.969Z,99684.95
2019-03-08T05:17:25.696Z,99683.74
2019-03-08T05:18:59.802Z,99686.61
2019-03-08T05:20:33.555Z,99680.80
2019-03-08T05:22:07.190Z,99681.30
2019-03-08T05:23:40.892Z,99681.41
2019-03-08T05:25:15.414Z,99670.52
2019-03-08T05:26:49.092Z,99673.77
2019-03-08T05:28:24.078Z,99675.91
2019-03-08T05:29:58.299Z,99678.28
2019-03-08T05:31:32.614Z,99682.41
2019-03-08T05:33:06.873Z,99677.05
2019-03-08T05:34:41.677Z,99685.62
2019-03-08T05:36:16.378Z,99687.91
2019-03-08T05:37:50.867Z,99692.47
2019-03-08T05:39:24.627Z,99688.23
2019-03-08T05:40:58.904Z,99691.25
2019-03-08T05:42:33.191Z,99684.20
2019-03-08T05:44:07.738Z,99686.73
2019-03-08T05:45:41.995Z,99684.56
2019-03-08T05:47:16.294Z,99682.63
2019-03-08T05:48:50.590Z,99682.84
2019-03-08T05:50:25.095Z,99679.30
2019-03-08T05:51:59.327Z,99686.94
2019-03-08T05:53:33.610Z,99685.63
2019-03-08T05:55:10.652Z,99689.17
2019-03-08T05:56:52.165Z,99684.36
2019-03-08T05:58:22.281Z,99696.14
2019-03-08T05:59:56.524Z,99697.70
2019-03-08T06:01:30.820Z,99695.61
2019-03-08T06:03:05.614Z,99689.32
2019-03-08T06:04:39.930Z,99690.96
2019-03-08T06:06:14.248Z,99688.47
2019-03-08T06:07:48.684Z,99676.79
2019-03-08T06:09:23.494Z,99675.38
2019-03-08T06:10:57.794Z,99682.22
2019-03-08T06:12:32.146Z,99686.86
2019-03-08T06:14:06.472Z,99687.52
2019-03-08T06:15:41.154Z,99688.30
2019-03-08T06:17:15.428Z,99692.48
2019-03-08T06:18:49.666Z,99685.30
2019-03-08T06:20:23.923Z,99684.84
2019-03-08T06:21:58.500Z,99679.88
2019-03-08T06:23:33.368Z,99678.25
2019-03-08T06:25:07.734Z,99676.84
2019-03-08T06:26:41.989Z,99670.71
2019-03-08T06:28:16.458Z,99674.17
2019-03-08T06:29:50.689Z,99675.02
2019-03-08T06:31:24.993Z,99667.35
2019-03-08T06:33:00.009Z,99664.13
2019-03-08T06:34:34.440Z,99671.51
2019-03-08T06:36:09.908Z,99674.87
2019-03-08T06:37:44.240Z,99673.27
2019-03-08T06:39:18.918Z,99675.53
2019-03-08T06:40:53.253Z,99664.66
2019-03-08T06:42:27.482Z,99672.24
2019-03-08T06:44:01.793Z,99667.90
2019-03-08T06:45:36.078Z,99671.87
2019-03-08T06:47:12.117Z,99670.66
2019-03-08T06:48:46.339Z,99667.00
2019-03-08T06:50:20.665Z,99672.09
2019-03-08T06:51:54.988Z,99669.84
2019-03-08T06:53:29.638Z,99667.80
2019-03-08T06:55:05.268Z,99666.63
2019-03-08T06:56:39.536Z,99662.04
2019-03-08T06:58:15.417Z,99660.44
2019-03-08T06:59:51.583Z,99654.44
2019-03-08T07:01:25.993Z,99656.05
2019-03-08T07:03:00.334Z,99664.53
2019-03-08T07:04:34.574Z,99660.89
2019-03-08T07:06:09.016Z,99665.91
2019-03-08T07:07:43.362Z,99666.30
2019-03-08T07:09:17.607Z,99664.75
2019-03-08T07:10:52.247Z,99665.26
2019-03-08T07:12:26.780Z,99662.58
2019-03-08T07:14:01.062Z,99670.23
2019-03-08T07:15:35.296Z,99664.46
2019-03-08T07:17:09.525Z,99668.04
2019-03-08T07:18:44.151Z,99673.77
2019-03-08T07:20:23.225Z,99666.64
2019-03-08T07:22:05.098Z,99662.69
2019-03-08T07:23:40.980Z,99657.84
2019-03-08T07:25:26.372Z,99656.40
2019-03-08T07:27:08.688Z,99658.90
2019-03-08T07:28:57.442Z,99651.72
2019-03-08T07:30:36.362Z,99657.64
2019-03-08T07:32:14.929Z,99650.08
2019-03-08T07:33:54.354Z,99654.03
2019-03-08T07:35:32.982Z,99643.23
2019-03-08T07:37:11.991Z,99647.61
2019-03-08T07:39:04.433Z,99645.74
2019-03-08T07:40:49.373Z,99641.97
2019-03-08T07:42:28.528Z,99642.27
2019-03-08T07:44:10.120Z,99636.05
2019-03-08T07:45:49.028Z,99631.59
2019-03-08T07:47:37.060Z,99623.30
2019-03-08T07:49:12.938Z,99629.30
2019-03-08T07:50:57.654Z,99618.59
2019-03-08T07:52:49.799Z,99621.20
2019-03-08T07:54:25.978Z,99618.53
2019-03-08T07:56:17.847Z,99619.78
2019-03-08T07:58:03.016Z,99621.36
2019-03-08T07:59:41.818Z,99613.24
2019-03-08T08:01:29.866Z,99618.42
2019-03-08T08:03:11.880Z,99613.98
2019-03-08T08:04:59.893Z,99610.51
2019-03-08T08:06:35.775Z,99606.91
2019-03-08T08:08:28.194Z,99605.84
2019-03-08T08:10:10.007Z,99603.97
2019-03-08T08:11:54.941Z,99603.75
2019-03-08T08:13:40.619Z,99601.31
2019-03-08T08:15:34.638Z,99597.99
2019-03-08T08:17:16.191Z,99601.47
2019-03-08T08:19:01.555Z,99598.17
2019-03-08T08:20:46.913Z,99591.92
2019-03-08T08:22:37.721Z,99593.55
2019-03-08T08:24:30.258Z,99597.25
2019-03-08T08:26:11.826Z,99593.14
2019-03-08T08:27:50.305Z,99600.66
2019-03-08T08:29:34.675Z,99598.55
2019-03-08T08:31:07.643Z,99600.34
2019-03-08T08:33:00.103Z,99596.63
2019-03-08T08:34:52.250Z,99598.45
2019-03-08T08:36:28.477Z,99594.73
2019-03-08T08:38:04.389Z,99594.44
2019-03-08T08:39:46.051Z,99592.13
2019-03-08T08:41:21.926Z,99591.44
2019-03-08T08:43:00.873Z,99589.05
2019-03-08T08:44:37.467Z,99582.67
2019-03-08T08:46:18.990Z,99579.73
2019-03-08T08:48:04.227Z,99573.67
2019-03-08T08:49:55.118Z,99571.39
2019-03-08T08:51:29.845Z,99566.00
2019-03-08T08:53:08.703Z,99562.83
2019-03-08T08:54:53.509Z,99564.31
2019-03-08T08:56:35.358Z,99562.61
2019-03-08T08:58:11.525Z,99558.20
2019-03-08T08:59:47.702Z,99556.72
2019-03-08T09:01:23.612Z,99554.55
2019-03-08T09:03:05.477Z,99553.43
2019-03-08T09:04:44.329Z,99553.13
2019-03-08T09:06:20.563Z,99550.87
2019-03-08T09:07:59.488Z,99549.30
2019-03-08T09:09:35.386Z,99548.88
2019-03-08T09:11:11.410Z,99544.78
2019-03-08T09:12:50.284Z,99546.77
2019-03-08T09:14:26.142Z,99542.15
2019-03-08T09:16:05.179Z,99538.81
2019-03-08T09:17:56.603Z,99541.27
2019-03-08T09:19:35.174Z,99540.88
2019-03-08T09:21:26.370Z,99542.22
2019-03-08T09:23:02.362Z,99533.45
2019-03-08T09:24:44.034Z,99532.76
2019-03-08T09:26:25.853Z,99535.33
2019-03-08T09:28:01.702Z,99534.08
2019-03-08T09:29:41.228Z,99526.36
2019-03-08T09:31:16.059Z,99534.67
2019-03-08T09:32:58.908Z,99528.64
2019-03-08T09:34:32.451Z,99525.66
2019-03-08T09:36:11.784Z,99526.53
2019-03-08T09:37:53.719Z,99529.80
2019-03-08T09:39:35.874Z,99526.16
2019-03-08T09:41:18.269Z,99519.31
2019-03-08T09:43:00.066Z,99525.59
2019-03-08T09:44:44.619Z,99519.82
2019-03-08T09:46:21.368Z,99515.49
2019-03-08T09:47:57.303Z,99511.50
2019-03-08T09:49:35.873Z,99509.01
2019-03-08T09:51:12.032Z,99512.86
2019-03-08T09:52:53.808Z,99516.92
2019-03-08T09:54:32.769Z,99510.55
2019-03-08T09:56:14.133Z,99510.42
2019-03-08T09:57:56.237Z,99504.54
2019-03-08T09:59:47.437Z,99505.61
2019-03-08T10:01:39.879Z,99502.20
2019-03-08T10:03:32.365Z,99500.55
2019-03-08T10:05:08.208Z,99491.41
2019-03-08T10:06:59.140Z,99500.72
2019-03-08T10:08:53.476Z,99501.20
2019-03-08T10:10:29.349Z,99502.03
2019-03-08T10:12:12.075Z,99493.13
2019-03-08T10:14:03.770Z,99497.36
2019-03-08T10:15:42.378Z,99492.66
2019-03-08T10:17:30.358Z,99492.61
2019-03-08T10:19:12.490Z,99490.86
2019-03-08T10:21:04.660Z,99486.97
2019-03-08T10:22:58.545Z,99489.57
2019-03-08T10:24:52.653Z,99473.33
2019-03-08T10:26:37.180Z,99482.51
2019-03-08T10:28:29.552Z,99479.14
2019-03-08T10:30:09.480Z,99471.91
2019-03-08T10:31:45.324Z,99470.23
2019-03-08T10:33:46.051Z,99467.86
2019-03-08T10:35:23.573Z,99468.11
2019-03-08T10:36:52.588Z,99466.36
2019-03-08T10:38:28.448Z,99462.34
2019-03-08T10:40:13.564Z,99463.34
2019-03-08T10:42:04.712Z,99461.20
2019-03-08T10:43:52.531Z,99460.58
2019-03-08T10:45:38.397Z,99460.22
2019-03-08T10:47:31.095Z,99457.86
2019-03-08T10:49:07.704Z,99460.00
2019-03-08T10:50:55.737Z,99457.93
2019-03-08T10:52:38.431Z,99456.52
2019-03-08T10:54:16.958Z,99452.61
2019-03-08T10:56:05.115Z,99453.91
2019-03-08T10:57:46.938Z,99441.17
2019-03-08T10:59:35.948Z,99451.64
2019-03-08T11:01:11.854Z,99446.04
2019-03-08T11:02:56.998Z,99443.61
2019-03-08T11:04:45.308Z,99439.66
2019-03-08T11:06:21.466Z,99437.61
2019-03-08T11:08:00.525Z,99439.97
2019-03-08T11:09:48.370Z,99437.59
2019-03-08T11:11:33.271Z,99432.09
2019-03-08T11:13:24.718Z,99430.02
2019-03-08T11:15:12.644Z,99432.02
2019-03-08T11:16:48.511Z,99423.23
2019-03-08T11:18:27.714Z,99424.17
2019-03-08T11:20:20.085Z,99425.66
2019-03-08T11:22:12.017Z,99419.30
2019-03-08T11:23:48.235Z,99417.41
2019-03-08T11:25:40.620Z,99419.02
2019-03-08T11:27:19.182Z,99418.66
2019-03-08T11:29:04.554Z,99409.75
2019-03-08T11:30:43.398Z,99412.33
2019-03-08T11:32:22.983Z,99406.23
2019-03-08T11:34:06.222Z,99402.40
2019-03-08T11:35:51.382Z,99403.45
2019-03-08T11:37:27.911Z,99396.94
2019-03-08T11:39:07.371Z,99398.20
2019-03-08T11:40:43.229Z,99397.44
2019-03-08T11:42:19.098Z,99395.73
2019-03-08T11:44:06.753Z,99398.13
2019-03-08T11:45:42.958Z,99397.73
2019-03-08T11:47:18.861Z,99399.95
2019-03-08T11:48:57.662Z,99394.50
2019-03-08T11:50:36.480Z,99388.55
2019-03-08T11:52:15.871Z,99390.39
2019-03-08T11:53:56.396Z,99391.12
2019-03-08T11:55:31.950Z,99390.36
2019-03-08T11:57:24.720Z,99390.85
2019-03-08T11:59:16.733Z,99384.17
2019-03-08T12:00:58.328Z,99386.97
2019-03-08T12:02:37.868Z,99383.13
2019-03-08T12:04:28.432Z,99377.51
2019-03-08T12:06:20.735Z,99378.89
2019-03-08T12:07:56.815Z,99371.91
2019-03-08T12:09:32.658Z,99372.45
2019-03-08T12:11:26.854Z,99366.69
2019-03-08T12:13:18.352Z,99371.63
2019-03-08T12:14:54.215Z,99366.29
2019-03-08T12:16:32.902Z,99365.44
2019-03-08T12:18:21.382Z,99358.52
2019-03-08T12:19:57.247Z,99354.20
2019-03-08T12:21:35.857Z,99358.00
2019-03-08T12:23:11.701Z,99359.28
2019-03-08T12:24:47.828Z,99347.73
2019-03-08T12:26:48.893Z,99351.79
2019-03-08T12:28:39.610Z,99347.53
2019-03-08T12:30:31.594Z,99349.86
2019-03-08T12:32:16.525Z,99342.76
2019-03-08T12:34:01.051Z,99340.16
2019-03-08T12:35:55.191Z,99338.23
2019-03-08T12:37:43.555Z,99338.47
2019-03-08T12:39:22.818Z,99341.78
2019-03-08T12:41:05.049Z,99338.23
2019-03-08T12:42:43.731Z,99339.70
2019-03-08T12:44:28.689Z,99321.33
2019-03-08T12:46:04.723Z,99335.22
2019-03-08T12:47:40.816Z,99336.59
2019-03-08T12:49:16.664Z,99335.42
2019-03-08T12:50:58.306Z,99334.66
2019-03-08T12:52:34.552Z,99330.91
2019-03-08T12:54:25.753Z,99328.90
2019-03-08T12:56:10.743Z,99334.41
2019-03-08T12:58:02.803Z,99332.02
2019-03-08T12:59:44.896Z,99330.73
2019-03-08T13:01:23.727Z,99325.05
2019-03-08T13:03:15.874Z,99330.24
2019-03-08T13:04:57.938Z,99327.73
2019-03-08T13:06:45.779Z,99327.09
2019-03-08T13:08:34.553Z,99330.31
2019-03-08T13:10:16.814Z,99331.17
2019-03-08T13:11:51.199Z,99332.39
2019-03-08T13:13:25.409Z,99335.68
2019-03-08T13:14:59.655Z,99327.80
2019-03-08T13:16:34.020Z,99325.70
2019-03-08T13:18:08.235Z,99330.70
2019-03-08T13:19:42.508Z,99329.30
2019-03-08T13:21:16.745Z,99337.11
2019-03-08T13:22:51.162Z,99337.40
2019-03-08T13:24:25.661Z,99331.16
2019-03-08T13:26:01.278Z,99330.71
2019-03-08T13:27:35.471Z,99336.81
2019-03-08T13:29:10.161Z,99329.30
2019-03-08T13:30:44.385Z,99327.00
2019-03-08T13:32:18.661Z,99328.28
2019-03-08T13:33:52.956Z,99326.93
2019-03-08T13:35:27.353Z,99322.05
2019-03-08T13:37:02.017Z,99327.12
2019-03-08T13:38:36.661Z,99326.22
2019-03-08T13:40:13.406Z,99324.79
2019-03-08T13:41:47.924Z,99322.47
2019-03-08T13:43:22.122Z,99324.58
2019-03-08T13:44:56.386Z,99323.13
2019-03-08T13:46:30.751Z,99320.55
2019-03-08T13:48:05.407Z,99323.49
2019-03-08T13:49:39.759Z,99318.99
2019-03-08T13:51:14.033Z,99322.55
2019-03-08T13:52:48.376Z,99321.42
2019-03-08T13:54:22.827Z,99317.86
2019-03-08T13:55:57.099Z,99321.63
2019-03-08T13:57:31.406Z,99321.36
2019-03-08T13:59:05.642Z,99320.69
2019-03-08T14:00:40.272Z,99321.63
2019-03-08T14:02:14.499Z,99318.47
2019-03-08T14:03:48.817Z,99317.91
2019-03-08T14:05:23.163Z,99317.02
2019-03-08T14:06:57.753Z,99316.42
2019-03-08T14:08:32.658Z,99316.02
2019-03-08T14:10:18.275Z,99315.84
2019-03-08T14:11:52.615Z,99318.47
2019-03-08T14:13:27.160Z,99319.13
2019-03-08T14:15:01.437Z,99319.86
2019-03-08T14:16:35.692Z,99312.56
2019-03-08T14:18:10.308Z,99316.66
2019-03-08T14:19:44.918Z,99318.46
2019-03-08T14:21:19.237Z,99317.15
2019-03-08T14:22:53.460Z,99318.94
2019-03-08T14:24:27.750Z,99324.59
2019-03-08T14:26:02.685Z,99322.48
2019-03-08T14:27:36.933Z,99322.43
2019-03-08T14:29:11.263Z,99316.64
2019-03-08T14:30:57.898Z,99319.03
2019-03-08T14:32:29.426Z,99322.13
2019-03-08T14:34:03.707Z,99317.79
2019-03-08T14:35:37.993Z,99320.77
2019-03-08T14:37:12.268Z,99319.70
2019-03-08T14:38:46.998Z,99314.97
2019-03-08T14:40:39.284Z,99312.91
2019-03-08T14:42:21.296Z,99322.04
2019-03-08T14:43:57.487Z,99319.08
2019-03-08T14:45:44.563Z,99316.66
2019-03-08T14:47:20.393Z,99322.22
2019-03-08T14:48:55.234Z,99323.09
2019-03-08T14:50:31.885Z,99322.56
2019-03-08T14:52:05.633Z,99325.42
2019-03-08T14:53:39.948Z,99328.59
2019-03-08T14:55:14.947Z,99329.31
2019-03-08T14:56:49.562Z,99329.77
2019-03-08T14:58:23.813Z,99329.61
2019-03-08T14:59:58.091Z,99333.80
2019-03-08T15:01:32.368Z,99331.50
2019-03-08T15:03:06.922Z,99332.17
2019-03-08T15:04:41.183Z,99334.29
2019-03-08T15:06:15.446Z,99326.88
2019-03-08T15:07:49.738Z,99340.72
2019-03-08T15:09:28.938Z,99336.65
2019-03-08T15:11:00.561Z,99336.45
2019-03-08T15:12:37.612Z,99339.20
2019-03-08T15:14:10.772Z,99333.14
2019-03-08T15:15:45.407Z,99341.77
2019-03-08T15:17:20.117Z,99342.75
2019-03-08T15:18:54.430Z,99343.05
2019-03-08T15:20:28.677Z,99347.40
2019-03-08T15:22:03.018Z,99345.84
2019-03-08T15:23:37.299Z,99350.53
2019-03-08T15:25:14.064Z,99348.67
2019-03-08T15:26:48.438Z,99355.22
2019-03-08T15:28:23.277Z,99353.73
2019-03-08T15:29:57.553Z,99356.75
2019-03-08T15:31:31.908Z,99353.95
2019-03-08T15:33:06.077Z,99354.55
2019-03-08T15:34:40.618Z,99355.96
2019-03-08T15:36:14.875Z,99358.13
2019-03-08T15:37:49.567Z,99354.11
2019-03-08T15:39:23.771Z,99357.16
2019-03-08T15:40:58.115Z,99350.80
2019-03-08T15:42:36.293Z,99355.91
2019-03-08T15:44:08.440Z,99355.29
2019-03-08T15:45:44.519Z,99359.96
2019-03-08T15:47:23.601Z,99362.28
2019-03-08T15:48:55.321Z,99360.56
2019-03-08T15:50:29.545Z,99362.28
2019-03-08T15:52:04.759Z,99362.70
2019-03-08T15:53:39.514Z,99365.67
2019-03-08T15:55:14.186Z,99367.80
2019-03-08T15:56:48.468Z,99368.94
2019-03-08T15:58:22.767Z,99368.97
2019-03-08T15:59:57.100Z,99370.33
2019-03-08T16:01:31.404Z,99372.59
2019-03-08T16:03:05.652Z,99379.85
2019-03-08T16:04:39.951Z,99380.70
2019-03-08T16:06:14.729Z,99385.09
2019-03-08T16:07:49.010Z,99385.08
2019-03-08T16:09:23.290Z,99388.27
2019-03-08T16:10:57.543Z,99384.91
2019-03-08T16:12:32.066Z,99381.30
2019-03-08T16:14:09.000Z,99385.82
2019-03-08T16:15:44.219Z,99386.83
2019-03-08T16:17:18.508Z,99395.00
2019-03-08T16:18:53.005Z,99396.46
2019-03-08T16:20:27.225Z,99396.25
2019-03-08T16:22:01.886Z,99397.47
2019-03-08T16:23:36.113Z,99399.70
2019-03-08T16:25:12.708Z,99405.63
2019-03-08T16:26:46.928Z,99399.18
2019-03-08T16:28:21.202Z,99407.28
2019-03-08T16:29:55.949Z,99408.22
2019-03-08T16:31:31.983Z,99407.52
2019-03-08T16:33:10.825Z,99405.61
2019-03-08T16:34:44.884Z,99407.20
2019-03-08T16:36:25.978Z,99405.83
2019-03-08T16:38:10.652Z,99412.70
2019-03-08T16:39:46.142Z,99418.58
2019-03-08T16:41:30.122Z,99420.95
2019-03-08T16:43:22.442Z,99426.02
2019-03-08T16:45:04.135Z,99425.95
2019-03-08T16:46:45.640Z,99428.39
2019-03-08T16:48:26.949Z,99431.23
2019-03-08T16:50:02.640Z,99439.75
2019-03-08T16:51:54.797Z,99441.41
2019-03-08T16:53:30.999Z,99444.84
2019-03-08T16:55:14.202Z,99446.48
2019-03-08T16:56:50.066Z,99447.38
2019-03-08T16:58:29.090Z,99445.30
2019-03-08T17:00:08.237Z,99453.41
2019-03-08T17:01:54.322Z,99458.04
2019-03-08T17:03:30.219Z,99458.66
2019-03-08T17:05:08.075Z,99459.09
2019-03-08T17:06:50.014Z,99459.20
2019-03-08T17:08:38.185Z,99462.84
2019-03-08T17:10:14.038Z,99469.84
2019-03-08T17:11:50.230Z,99468.45
2019-03-08T17:13:26.558Z,99469.68
2019-03-08T17:15:18.820Z,99465.92
2019-03-08T17:16:54.702Z,99466.95
2019-03-08T17:18:36.579Z,99467.90
2019-03-08T17:20:17.949Z,99475.44
2019-03-08T17:21:59.857Z,99473.33
2019-03-08T17:23:41.299Z,99477.14
2019-03-08T17:25:29.193Z,99476.62
2019-03-08T17:27:13.813Z,99470.05
2019-03-08T17:28:56.318Z,99469.62
2019-03-08T17:30:32.175Z,99472.33
2019-03-08T17:32:08.191Z,99473.84
2019-03-08T17:33:51.551Z,99479.62
2019-03-08T17:35:30.263Z,99483.31
2019-03-08T17:37:15.125Z,99487.15
2019-03-08T17:38:59.778Z,99495.12
2019-03-08T17:40:52.406Z,99495.75
2019-03-08T17:42:34.136Z,99499.81
2019-03-08T17:44:22.092Z,99500.98
2019-03-08T17:46:01.198Z,99504.95
2019-03-08T17:47:46.350Z,99501.70
2019-03-08T17:49:37.480Z,99507.58
2019-03-08T17:51:16.341Z,99505.70
2019-03-08T17:52:55.032Z,99510.42
2019-03-08T17:54:33.836Z,99504.20
2019-03-08T17:56:15.488Z,99506.58
2019-03-08T17:58:07.914Z,99508.30
2019-03-08T17:59:46.786Z,99512.06
2019-03-08T18:01:39.051Z,99512.91
2019-03-08T18:03:24.527Z,99521.27
2019-03-08T18:05:00.494Z,99519.27
2019-03-08T18:06:42.158Z,99528.16
2019-03-08T18:08:36.473Z,99525.95
2019-03-08T18:10:12.379Z,99528.88
2019-03-08T18:11:48.287Z,99531.46
2019-03-08T18:13:24.229Z,99533.59
2019-03-08T18:15:16.595Z,99538.38
2019-03-08T18:17:08.887Z,99547.71
2019-03-08T18:18:44.805Z,99546.92
2019-03-08T18:20:23.774Z,99539.81
2019-03-08T18:21:59.640Z,99546.11
2019-03-08T18:23:38.675Z,99542.08
2019-03-08T18:25:14.574Z,99541.88
2019-03-08T18:26:50.670Z,99550.66
2019-03-08T18:28:41.765Z,99552.28
2019-03-08T18:30:37.151Z,99550.75
2019-03-08T18:32:19.509Z,99551.13
2019-03-08T18:34:01.224Z,99549.17
2019-03-08T18:35:40.213Z,99541.71
2019-03-08T18:37:18.853Z,99545.76
2019-03-08T18:39:07.030Z,99548.71
2019-03-08T18:40:42.916Z,99550.98
2019-03-08T18:42:34.983Z,99551.24
2019-03-08T18:44:16.694Z,99548.09
2019-03-08T18:46:01.784Z,99550.87
2019-03-08T18:47:52.627Z,99487.22
2019-03-08T18:49:28.665Z,99553.48
2019-03-08T18:51:22.618Z,99553.08
2019-03-08T18:53:14.585Z,99557.66
2019-03-08T18:55:00.407Z,99552.61
2019-03-08T18:56:51.035Z,99553.39
2019-03-08T18:58:43.545Z,99554.44
2019-03-08T19:00:32.476Z,99555.48
2019-03-08T19:02:11.348Z,99550.07
2019-03-08T19:04:03.772Z,99557.77
2019-03-08T19:05:43.928Z,99560.28
2019-03-08T19:07:29.057Z,99563.16
2019-03-08T19:09:21.319Z,99563.91
2019-03-08T19:11:16.622Z,99562.44